createdAt,value
2018-07-14T00:01:49.676Z,64.35
2018-07-14T00:04:19.272Z,64.09
2018-07-14T00:06:49.079Z,63.82
2018-07-14T00:09:18.897Z,64.31
2018-07-14T00:11:49.011Z,64.54
2018-07-14T00:14:18.963Z,63.95
2018-07-14T00:16:48.787Z,64.57
2018-07-14T00:19:18.542Z,64.97
2018-07-14T00:21:48.601Z,65.14
2018-07-14T00:24:18.374Z,64.90
2018-07-14T00:26:48.280Z,65.57
2018-07-14T00:29:18.070Z,65.51
2018-07-14T00:31:47.943Z,65.58
2018-07-14T00:34:17.661Z,66.21
2018-07-14T00:36:47.416Z,65.35
2018-07-14T00:39:17.276Z,65.69
2018-07-14T00:41:47.156Z,65.43
2018-07-14T00:44:17.033Z,65.45
2018-07-14T00:46:46.862Z,66.38
2018-07-14T00:49:16.802Z,66.49
2018-07-14T00:51:46.675Z,65.93
2018-07-14T00:54:16.435Z,65.84
2018-07-14T00:56:46.469Z,66.55
2018-07-14T00:59:16.359Z,67.19
2018-07-14T01:01:46.076Z,66.83
2018-07-14T01:04:15.916Z,67.24
2018-07-14T01:06:45.874Z,66.84
2018-07-14T01:09:15.580Z,67.35
2018-07-14T01:11:45.302Z,67.34
2018-07-14T01:14:15.344Z,67.33
2018-07-14T01:16:45.178Z,66.48
2018-07-14T01:19:14.904Z,67.43
2018-07-14T01:21:44.609Z,67.58
2018-07-14T01:24:14.398Z,67.38
2018-07-14T01:26:44.947Z,67.10
2018-07-14T01:29:15.639Z,67.85
2018-07-14T01:31:45.320Z,67.95
2018-07-14T01:34:15.091Z,68.22
2018-07-14T01:36:44.838Z,68.46
2018-07-14T01:39:14.257Z,68.13
2018-07-14T01:41:43.962Z,68.78
2018-07-14T01:44:13.379Z,69.29
2018-07-14T01:46:42.756Z,69.00
2018-07-14T01:49:12.473Z,69.37
2018-07-14T01:51:41.815Z,69.02
2018-07-14T01:54:11.519Z,69.00
2018-07-14T01:56:41.461Z,69.12
2018-07-14T01:59:11.193Z,69.73
2018-07-14T02:01:40.935Z,69.86
2018-07-14T02:04:10.794Z,70.54
2018-07-14T02:06:40.521Z,70.83
2018-07-14T02:09:10.392Z,70.26
2018-07-14T02:11:40.140Z,71.09
2018-07-14T02:14:09.876Z,70.65
2018-07-14T02:16:39.835Z,71.10
2018-07-14T02:19:09.657Z,70.84
2018-07-14T02:21:39.331Z,71.05
2018-07-14T02:24:09.093Z,70.43
2018-07-14T02:26:38.969Z,70.52
2018-07-14T02:29:08.739Z,70.84
2018-07-14T02:31:38.519Z,71.70
2018-07-14T02:34:08.294Z,70.87
2018-07-14T02:36:38.006Z,70.93
2018-07-14T02:39:08.216Z,70.92
2018-07-14T02:41:38.170Z,70.98
2018-07-14T02:44:08.179Z,71.66
2018-07-14T02:46:37.985Z,72.48
2018-07-14T02:49:07.706Z,71.89
2018-07-14T02:51:37.209Z,73.03
2018-07-14T02:54:07.054Z,72.13
2018-07-14T02:56:36.856Z,72.25
2018-07-14T02:59:06.714Z,72.98
2018-07-14T03:01:36.615Z,73.44
2018-07-14T03:04:06.374Z,73.51
2018-07-14T03:06:36.160Z,73.52
2018-07-14T03:09:07.721Z,73.08
2018-07-14T03:11:37.590Z,73.46
2018-07-14T03:14:07.422Z,73.58
2018-07-14T03:16:37.160Z,72.81
2018-07-14T03:19:06.890Z,73.03
2018-07-14T03:21:36.708Z,74.03
2018-07-14T03:24:06.604Z,73.47
2018-07-14T03:26:36.309Z,74.00
2018-07-14T03:29:06.114Z,73.78
2018-07-14T03:31:35.897Z,73.47
2018-07-14T03:34:05.773Z,73.90
2018-07-14T03:36:35.643Z,74.17
2018-07-14T03:39:05.634Z,73.80
2018-07-14T03:41:35.349Z,73.38
2018-07-14T03:44:05.082Z,73.95
2018-07-14T03:46:34.770Z,74.43
2018-07-14T03:49:04.685Z,73.49
2018-07-14T03:51:34.487Z,73.12
2018-07-14T03:54:04.553Z,73.41
2018-07-14T03:56:34.272Z,73.77
2018-07-14T03:59:04.097Z,73.08
2018-07-14T04:01:34.069Z,72.81
2018-07-14T04:04:13.279Z,72.55
2018-07-14T04:06:44.669Z,72.42
2018-07-14T04:09:16.948Z,73.44
2018-07-14T04:11:49.253Z,73.05
2018-07-14T04:14:18.987Z,71.76
2018-07-14T04:16:48.455Z,72.13
2018-07-14T04:19:18.462Z,72.92
2018-07-14T04:21:48.331Z,72.51
2018-07-14T04:24:18.080Z,73.05
2018-07-14T04:26:47.453Z,72.81
2018-07-14T04:29:17.220Z,72.80
2018-07-14T04:31:46.586Z,71.80
2018-07-14T04:34:16.441Z,71.80
2018-07-14T04:36:46.150Z,71.79
2018-07-14T04:39:16.062Z,72.05
2018-07-14T04:41:45.793Z,72.27
2018-07-14T04:44:15.498Z,72.50
2018-07-14T04:46:45.370Z,73.25
2018-07-14T04:49:15.429Z,71.59
2018-07-14T04:51:45.119Z,71.69
2018-07-14T04:54:14.480Z,72.00
2018-07-14T04:56:44.236Z,71.38
2018-07-14T04:59:13.937Z,71.33
2018-07-14T05:01:43.669Z,71.70
2018-07-14T05:04:13.406Z,71.61
2018-07-14T05:06:43.197Z,71.17
2018-07-14T05:09:12.922Z,70.96
2018-07-14T05:11:42.718Z,71.41
2018-07-14T05:14:12.538Z,71.18
2018-07-14T05:16:42.322Z,70.83
2018-07-14T05:19:12.060Z,71.01
2018-07-14T05:21:45.382Z,69.93
2018-07-14T05:24:15.325Z,70.21
2018-07-14T05:26:47.281Z,70.19
2018-07-14T05:29:17.118Z,69.74
2018-07-14T05:31:46.973Z,69.44
2018-07-14T05:34:16.821Z,70.01
2018-07-14T05:36:46.914Z,70.39
2018-07-14T05:39:24.730Z,69.51
2018-07-14T05:41:54.583Z,70.22
2018-07-14T05:44:24.378Z,69.88
2018-07-14T05:46:54.433Z,68.92
2018-07-14T05:49:24.219Z,69.02
2018-07-14T05:51:54.189Z,68.89
2018-07-14T05:54:23.982Z,68.31
2018-07-14T05:56:53.815Z,68.91
2018-07-14T05:59:23.557Z,69.77
2018-07-14T06:01:53.358Z,69.79
2018-07-14T06:04:23.730Z,69.21
2018-07-14T06:06:53.459Z,67.58
2018-07-14T06:09:23.129Z,68.85
2018-07-14T06:11:52.945Z,68.07
2018-07-14T06:14:22.710Z,67.19
2018-07-14T06:16:52.498Z,66.72
2018-07-14T06:19:22.425Z,65.66
2018-07-14T06:21:52.284Z,66.21
2018-07-14T06:24:22.238Z,66.77
2018-07-14T06:26:52.006Z,67.19
2018-07-14T06:29:23.104Z,66.64
2018-07-14T06:32:01.967Z,66.37
2018-07-14T06:34:46.471Z,64.85
2018-07-14T06:37:17.091Z,66.11
2018-07-14T06:39:47.762Z,66.38
2018-07-14T06:42:17.985Z,66.08
2018-07-14T06:44:49.040Z,65.79
2018-07-14T06:47:20.112Z,66.03
2018-07-14T06:49:51.925Z,65.31
2018-07-14T06:52:22.085Z,65.12
2018-07-14T06:54:52.790Z,65.82
2018-07-14T06:57:23.323Z,65.13
2018-07-14T06:59:54.545Z,64.07
2018-07-14T07:02:25.580Z,64.04
2018-07-14T07:05:14.718Z,62.96
2018-07-14T07:07:44.517Z,64.01
2018-07-14T07:10:14.292Z,64.90
2018-07-14T07:12:44.127Z,65.83
2018-07-14T07:15:13.989Z,65.96
2018-07-14T07:17:43.811Z,65.16
2018-07-14T07:20:13.813Z,63.99
2018-07-14T07:22:43.555Z,64.86
2018-07-14T07:25:13.586Z,64.73
2018-07-14T07:27:43.324Z,64.45
2018-07-14T07:30:13.266Z,64.23
2018-07-14T07:32:43.326Z,63.62
2018-07-14T07:35:13.287Z,62.99
2018-07-14T07:37:43.051Z,62.13
2018-07-14T07:40:12.882Z,61.90
2018-07-14T07:42:42.711Z,61.99
2018-07-14T07:45:12.499Z,62.22
2018-07-14T07:47:42.117Z,62.35
2018-07-14T07:50:12.288Z,62.04
2018-07-14T07:52:42.066Z,61.72
2018-07-14T07:55:12.011Z,61.05
2018-07-14T07:57:41.567Z,59.66
2018-07-14T08:00:11.570Z,60.42
2018-07-14T08:02:44.609Z,59.95
2018-07-14T08:05:14.637Z,60.72
2018-07-14T08:07:44.374Z,60.34
2018-07-14T08:10:18.426Z,59.85
2018-07-14T08:12:49.625Z,60.65
2018-07-14T08:15:19.986Z,59.26
2018-07-14T08:17:53.626Z,58.80
2018-07-14T08:20:23.382Z,58.83
2018-07-14T08:22:53.251Z,59.30
2018-07-14T08:25:22.767Z,58.68
2018-07-14T08:27:52.582Z,58.22
2018-07-14T08:30:22.495Z,58.18
2018-07-14T08:32:52.332Z,58.22
2018-07-14T08:35:22.189Z,58.57
2018-07-14T08:37:51.588Z,59.18
2018-07-14T08:40:21.496Z,57.96
2018-07-14T08:42:51.518Z,59.09
2018-07-14T08:45:21.333Z,58.92
2018-07-14T08:47:51.151Z,57.73
2018-07-14T08:50:21.009Z,58.49
2018-07-14T08:52:50.798Z,58.50
2018-07-14T08:55:20.603Z,57.53
2018-07-14T08:57:50.349Z,58.56
2018-07-14T09:00:21.267Z,58.39
2018-07-14T09:02:52.895Z,57.37
2018-07-14T09:05:22.348Z,57.91
2018-07-14T09:07:53.319Z,56.97
2018-07-14T09:10:24.896Z,56.42
2018-07-14T09:12:58.160Z,56.44
2018-07-14T09:15:28.179Z,55.76
2018-07-14T09:17:57.641Z,56.30
2018-07-14T09:20:31.009Z,56.88
2018-07-14T09:23:05.148Z,55.98
2018-07-14T09:25:36.060Z,56.74
2018-07-14T09:28:08.931Z,55.45
2018-07-14T09:30:39.798Z,55.32
2018-07-14T09:33:10.666Z,55.37
2018-07-14T09:35:40.734Z,54.48
2018-07-14T09:38:10.634Z,55.19
2018-07-14T09:40:40.497Z,54.94
2018-07-14T09:43:10.266Z,54.48
2018-07-14T09:45:40.043Z,54.23
2018-07-14T09:48:11.218Z,54.90
2018-07-14T09:50:41.379Z,54.90
2018-07-14T09:53:11.454Z,54.25
2018-07-14T09:55:41.221Z,53.92
2018-07-14T09:58:11.085Z,53.77
2018-07-14T10:00:46.750Z,55.05
2018-07-14T10:03:16.600Z,54.92
2018-07-14T10:05:46.859Z,54.50
2018-07-14T10:08:18.819Z,53.74
2018-07-14T10:10:50.510Z,53.01
2018-07-14T10:13:20.975Z,53.06
2018-07-14T10:15:51.553Z,52.18
2018-07-14T10:18:21.255Z,52.34
2018-07-14T10:20:51.096Z,52.22
2018-07-14T10:23:21.012Z,51.58
2018-07-14T10:25:51.157Z,51.98
2018-07-14T10:28:21.094Z,51.38
2018-07-14T10:30:50.902Z,51.25
2018-07-14T10:33:20.745Z,51.58
2018-07-14T10:35:50.608Z,51.22
2018-07-14T10:38:20.026Z,50.90
2018-07-14T10:40:49.936Z,51.19
2018-07-14T10:43:21.166Z,50.81
2018-07-14T10:45:50.976Z,49.88
2018-07-14T10:48:20.981Z,50.82
2018-07-14T10:50:50.933Z,50.95
2018-07-14T10:53:20.682Z,51.28
2018-07-14T10:55:50.589Z,50.20
2018-07-14T10:58:20.375Z,50.29
2018-07-14T11:00:50.188Z,49.97
2018-07-14T11:03:20.100Z,50.00
2018-07-14T11:05:50.066Z,49.37
2018-07-14T11:08:19.976Z,48.65
2018-07-14T11:10:49.736Z,48.93
2018-07-14T11:13:19.524Z,47.47
2018-07-14T11:15:49.265Z,48.51
2018-07-14T11:18:19.102Z,48.99
2018-07-14T11:20:49.142Z,49.13
2018-07-14T11:23:19.094Z,47.67
2018-07-14T11:25:48.511Z,47.33
2018-07-14T11:28:17.944Z,47.91
2018-07-14T11:30:47.701Z,48.08
2018-07-14T11:33:17.456Z,48.07
2018-07-14T11:35:47.167Z,49.25
2018-07-14T11:38:17.124Z,49.06
2018-07-14T11:40:46.531Z,48.61
2018-07-14T11:43:16.210Z,48.20
2018-07-14T11:45:45.907Z,47.89
2018-07-14T11:48:15.759Z,47.59
2018-07-14T11:50:45.638Z,47.75
2018-07-14T11:53:41.800Z,47.77
2018-07-14T11:56:11.819Z,47.20
2018-07-14T11:58:41.689Z,46.99
2018-07-14T12:01:11.557Z,46.63
2018-07-14T12:03:42.093Z,45.76
2018-07-14T12:06:11.630Z,46.54
2018-07-14T12:08:41.600Z,46.53
2018-07-14T12:11:11.738Z,45.96
2018-07-14T12:13:41.868Z,45.30
2018-07-14T12:16:11.722Z,45.00
2018-07-14T12:18:41.770Z,44.97
2018-07-14T12:21:11.216Z,44.52
2018-07-14T12:23:41.118Z,44.14
2018-07-14T12:26:10.525Z,44.81
2018-07-14T12:28:40.498Z,44.99
2018-07-14T12:31:10.496Z,44.54
2018-07-14T12:33:40.514Z,42.63
2018-07-14T12:36:10.427Z,42.32
2018-07-14T12:38:40.317Z,42.93
2018-07-14T12:41:10.386Z,42.57
2018-07-14T12:43:40.342Z,41.57
2018-07-14T12:46:09.785Z,41.63
2018-07-14T12:48:39.765Z,41.71
2018-07-14T12:51:10.120Z,41.72
2018-07-14T12:53:40.002Z,41.14
2018-07-14T12:56:10.018Z,40.68
2018-07-14T12:58:39.973Z,41.19
2018-07-14T13:01:11.083Z,41.29
2018-07-14T13:03:41.564Z,41.24
2018-07-14T13:06:11.511Z,40.24
2018-07-14T13:08:41.388Z,39.39
2018-07-14T13:11:11.677Z,39.57
2018-07-14T13:13:44.477Z,39.54
2018-07-14T13:16:14.486Z,39.42
2018-07-14T13:18:44.529Z,38.79
2018-07-14T13:21:14.512Z,39.53
2018-07-14T13:23:44.574Z,38.10
2018-07-14T13:26:14.367Z,38.59
2018-07-14T13:28:44.092Z,37.70
2018-07-14T13:31:14.360Z,38.09
2018-07-14T13:33:43.842Z,35.95
2018-07-14T13:36:13.975Z,36.28
2018-07-14T13:39:10.656Z,36.05
2018-07-14T13:41:40.796Z,36.03
2018-07-14T13:44:10.735Z,34.63
2018-07-14T13:46:40.827Z,35.16
2018-07-14T13:49:10.746Z,36.30
2018-07-14T13:51:40.681Z,35.97
2018-07-14T13:54:10.864Z,35.27
2018-07-14T13:56:41.295Z,35.85
2018-07-14T13:59:11.689Z,34.90
2018-07-14T14:01:41.585Z,33.87
2018-07-14T14:04:11.754Z,35.18
2018-07-14T14:06:42.025Z,33.36
2018-07-14T14:09:12.176Z,32.79
2018-07-14T14:11:41.631Z,33.94
2018-07-14T14:14:11.611Z,33.51
2018-07-14T14:16:41.622Z,33.69
2018-07-14T14:19:11.741Z,32.99
2018-07-14T14:21:42.072Z,33.49
2018-07-14T14:24:12.185Z,32.05
2018-07-14T14:26:42.177Z,31.70
2018-07-14T14:29:12.265Z,31.06
2018-07-14T14:31:42.236Z,32.96
2018-07-14T14:34:12.356Z,31.40
2018-07-14T14:36:42.479Z,31.06
2018-07-14T14:39:12.369Z,30.76
2018-07-14T14:41:43.432Z,30.65
2018-07-14T14:44:13.420Z,30.19
2018-07-14T14:46:43.661Z,29.72
2018-07-14T14:49:13.585Z,30.19
2018-07-14T14:51:43.677Z,30.64
2018-07-14T14:54:13.519Z,30.13
2018-07-14T14:56:44.018Z,31.01
2018-07-14T14:59:20.869Z,30.67
2018-07-14T15:01:50.966Z,29.85
2018-07-14T15:04:21.039Z,29.94
2018-07-14T15:06:51.100Z,29.25
2018-07-14T15:09:21.064Z,28.26
2018-07-14T15:11:50.702Z,28.74
2018-07-14T15:14:20.787Z,30.26
2018-07-14T15:16:51.067Z,29.53
2018-07-14T15:19:21.169Z,29.60
2018-07-14T15:21:51.037Z,29.95
2018-07-14T15:24:21.164Z,28.57
2018-07-14T15:26:51.237Z,30.07
2018-07-14T15:29:21.416Z,32.50
2018-07-14T15:31:51.358Z,31.78
2018-07-14T15:34:21.628Z,34.29
2018-07-14T15:36:51.596Z,36.07
2018-07-14T15:39:21.968Z,36.12
2018-07-14T15:41:52.592Z,37.08
2018-07-14T15:44:22.836Z,35.66
2018-07-14T15:46:52.828Z,36.68
2018-07-14T15:49:22.803Z,37.99
2018-07-14T15:51:53.127Z,37.04
2018-07-14T15:54:23.400Z,36.77
2018-07-14T15:56:53.204Z,36.23
2018-07-14T15:59:22.741Z,36.70
2018-07-14T16:01:52.812Z,35.85
2018-07-14T16:04:22.668Z,36.74
2018-07-14T16:06:52.801Z,36.47
2018-07-14T16:09:22.666Z,36.31
2018-07-14T16:11:52.843Z,36.33
2018-07-14T16:14:22.810Z,37.34
2018-07-14T16:16:52.740Z,37.00
2018-07-14T16:19:23.173Z,35.97
2018-07-14T16:21:53.318Z,36.66
2018-07-14T16:24:23.315Z,37.44
2018-07-14T16:26:53.484Z,37.05
2018-07-14T16:29:23.317Z,37.63
2018-07-14T16:31:53.510Z,36.82
2018-07-14T16:34:23.524Z,37.17
2018-07-14T16:36:53.398Z,36.28
2018-07-14T16:39:23.302Z,36.59
2018-07-14T16:41:52.863Z,37.36
2018-07-14T16:44:22.785Z,37.09
2018-07-14T16:46:52.937Z,36.26
2018-07-14T16:49:23.012Z,36.91
2018-07-14T16:51:56.485Z,35.58
2018-07-14T16:54:25.989Z,35.65
2018-07-14T16:56:55.476Z,35.26
2018-07-14T16:59:25.672Z,36.01
2018-07-14T17:01:55.520Z,37.47
2018-07-14T17:04:25.548Z,36.89
2018-07-14T17:06:55.303Z,37.42
2018-07-14T17:09:25.112Z,37.29
2018-07-14T17:11:54.941Z,35.89
2018-07-14T17:14:25.043Z,35.68
2018-07-14T17:16:55.015Z,35.50
2018-07-14T17:19:25.003Z,34.58
2018-07-14T17:21:55.015Z,34.85
2018-07-14T17:24:25.049Z,35.35
2018-07-14T17:26:55.343Z,35.86
2018-07-14T17:29:25.169Z,35.94
2018-07-14T17:31:55.069Z,35.41
2018-07-14T17:34:25.176Z,35.35
2018-07-14T17:36:55.088Z,35.81
2018-07-14T17:39:25.029Z,35.25
2018-07-14T17:41:55.003Z,36.03
2018-07-14T17:44:24.862Z,35.63
2018-07-14T17:46:54.966Z,36.60
2018-07-14T17:49:26.827Z,36.00
2018-07-14T17:51:59.300Z,36.51
2018-07-14T17:54:29.329Z,36.55
2018-07-14T17:56:59.290Z,37.11
2018-07-14T17:59:29.379Z,36.31
2018-07-14T18:01:59.268Z,36.79
2018-07-14T18:04:29.213Z,37.34
2018-07-14T18:06:59.207Z,37.23
2018-07-14T18:09:29.279Z,37.68
2018-07-14T18:11:59.182Z,37.37
2018-07-14T18:14:29.197Z,36.83
2018-07-14T18:16:59.235Z,37.23
2018-07-14T18:19:28.828Z,37.59
2018-07-14T18:21:58.852Z,38.02
2018-07-14T18:24:28.764Z,38.66
2018-07-14T18:26:58.792Z,37.84
2018-07-14T18:29:28.699Z,38.11
2018-07-14T18:31:58.670Z,39.30
2018-07-14T18:34:29.084Z,37.07
2018-07-14T18:36:59.180Z,37.84
2018-07-14T18:39:28.802Z,37.49
2018-07-14T18:41:58.759Z,37.51
2018-07-14T18:44:28.800Z,37.68
2018-07-14T18:46:58.832Z,38.19
2018-07-14T18:49:28.952Z,36.87
2018-07-14T18:51:58.599Z,37.60
2018-07-14T18:54:28.813Z,37.73
2018-07-14T18:56:58.749Z,37.09
2018-07-14T18:59:28.793Z,38.16
2018-07-14T19:01:58.816Z,38.52
2018-07-14T19:04:29.001Z,38.03
2018-07-14T19:06:59.021Z,38.24
2018-07-14T19:09:29.081Z,38.37
2018-07-14T19:11:59.170Z,38.43
2018-07-14T19:14:29.334Z,38.23
2018-07-14T19:17:00.293Z,38.53
2018-07-14T19:19:30.429Z,39.54
2018-07-14T19:22:00.938Z,39.50
2018-07-14T19:24:31.243Z,39.00
2018-07-14T19:27:00.964Z,40.15
2018-07-14T19:29:31.044Z,39.37
2018-07-14T19:32:01.311Z,40.20
2018-07-14T19:34:30.987Z,39.50
2018-07-14T19:37:00.767Z,39.56
2018-07-14T19:39:31.886Z,39.72
2018-07-14T19:42:01.802Z,40.65
2018-07-14T19:44:31.785Z,40.66
2018-07-14T19:47:01.861Z,40.20
2018-07-14T19:49:32.640Z,40.26
2018-07-14T19:52:02.808Z,40.25
2018-07-14T19:54:32.963Z,41.39
2018-07-14T19:57:02.840Z,41.75
2018-07-14T19:59:32.761Z,41.29
2018-07-14T20:02:03.174Z,41.33
2018-07-14T20:04:33.066Z,41.38
2018-07-14T20:07:03.008Z,42.05
2018-07-14T20:09:33.132Z,41.96
2018-07-14T20:12:03.175Z,42.02
2018-07-14T20:14:33.177Z,43.06
2018-07-14T20:17:03.116Z,42.42
2018-07-14T20:19:33.053Z,43.50
2018-07-14T20:22:03.202Z,43.00
2018-07-14T20:24:33.970Z,43.98
2018-07-14T20:27:03.952Z,44.18
2018-07-14T20:29:33.879Z,43.70
2018-07-14T20:32:03.563Z,43.66
2018-07-14T20:34:33.088Z,44.40
2018-07-14T20:37:02.744Z,44.78
2018-07-14T20:39:32.565Z,44.37
2018-07-14T20:42:02.832Z,44.40
2018-07-14T20:44:32.651Z,44.92
2018-07-14T20:47:02.343Z,44.93
2018-07-14T20:49:32.559Z,45.03
2018-07-14T20:52:02.898Z,45.57
2018-07-14T20:54:32.892Z,46.58
2018-07-14T20:57:02.894Z,46.00
2018-07-14T20:59:32.733Z,45.63
2018-07-14T21:02:02.578Z,46.54
2018-07-14T21:04:32.036Z,45.85
2018-07-14T21:07:01.887Z,46.83
2018-07-14T21:09:32.150Z,45.76
2018-07-14T21:12:02.352Z,46.70
2018-07-14T21:14:32.329Z,46.08
2018-07-14T21:17:02.364Z,46.11
2018-07-14T21:19:32.325Z,46.39
2018-07-14T21:22:02.296Z,46.93
2018-07-14T21:24:31.923Z,46.37
2018-07-14T21:27:01.825Z,46.24
2018-07-14T21:29:31.276Z,46.28
2018-07-14T21:32:01.195Z,46.11
2018-07-14T21:34:31.328Z,46.77
2018-07-14T21:37:01.173Z,46.70
2018-07-14T21:39:30.661Z,46.85
2018-07-14T21:42:00.656Z,46.98
2018-07-14T21:44:30.622Z,46.03
2018-07-14T21:47:00.621Z,47.29
2018-07-14T21:49:30.320Z,47.14
2018-07-14T21:52:00.142Z,47.37
2018-07-14T21:54:30.241Z,46.69
2018-07-14T21:57:00.158Z,46.63
2018-07-14T21:59:30.585Z,47.20
2018-07-14T22:02:04.720Z,46.81
2018-07-14T22:04:36.522Z,46.47
2018-07-14T22:07:06.494Z,47.04
2018-07-14T22:09:36.580Z,46.85
2018-07-14T22:12:07.029Z,47.72
2018-07-14T22:14:37.041Z,47.92
2018-07-14T22:17:07.024Z,47.73
2018-07-14T22:19:37.297Z,47.87
2018-07-14T22:22:07.260Z,47.52
2018-07-14T22:24:37.085Z,48.07
2018-07-14T22:27:07.164Z,48.28
2018-07-14T22:29:36.701Z,47.68
2018-07-14T22:32:08.179Z,48.56
2018-07-14T22:34:38.224Z,47.99
2018-07-14T22:37:08.109Z,48.96
2018-07-14T22:39:38.641Z,48.94
2018-07-14T22:42:08.733Z,49.26
2018-07-14T22:44:38.995Z,49.06
2018-07-14T22:47:08.929Z,48.15
2018-07-14T22:49:38.802Z,48.44
2018-07-14T22:52:09.262Z,49.02
2018-07-14T22:54:39.418Z,49.15
2018-07-14T22:57:09.485Z,49.55
2018-07-14T22:59:39.396Z,48.45
2018-07-14T23:02:09.413Z,49.01
2018-07-14T23:04:39.522Z,49.60
2018-07-14T23:07:09.557Z,49.38
2018-07-14T23:09:39.560Z,48.86
2018-07-14T23:12:09.408Z,48.93
2018-07-14T23:14:39.440Z,49.72
2018-07-14T23:17:09.688Z,49.31
2018-07-14T23:19:39.517Z,49.91
2018-07-14T23:22:09.519Z,50.66
2018-07-14T23:24:39.454Z,50.35
2018-07-14T23:27:09.269Z,50.75
2018-07-14T23:29:39.099Z,51.08
2018-07-14T23:32:08.981Z,50.83
2018-07-14T23:34:39.191Z,50.74
2018-07-14T23:37:08.716Z,50.29
2018-07-14T23:39:38.770Z,50.52
2018-07-14T23:42:08.784Z,50.49
2018-07-14T23:44:38.643Z,51.59
2018-07-14T23:47:08.673Z,51.02
2018-07-14T23:49:38.757Z,51.98
2018-07-14T23:52:08.584Z,52.06
2018-07-14T23:54:38.072Z,51.45
2018-07-14T23:57:08.561Z,51.69
2018-07-14T23:59:38.736Z,52.16
